Time;durP1;ratioP1;P1;durP2;ratioP2;P2;SDS_P1;SDS_P2;PMS_P1;PMS_P2;Temp;Humidity;BMP_temperature;BMP_pressure;BME280_temperature;BME280_humidity;BME280_pressure;Samples;Min_cycle;Max_cycle;Signal;HPM_P1;HPM_P2
2022/08/02 00:01:57;;;;;;;;;;;;;;;19.86;64.92;100393.81;4873646;29;1595;-93
2022/08/02 00:04:23;;;;;;;;;;;;;;;19.85;64.80;100386.72;4869274;29;1279;-94
2022/08/02 00:06:50;;;;;;;;;;;;;;;19.85;64.52;100391.38;4870691;29;1527;-94
2022/08/02 00:09:16;;;;;;;;;;;;;;;19.83;64.87;100397.13;4884997;29;1471;-93
2022/08/02 00:11:42;;;;;;;;;;;;;;;19.82;64.62;100395.47;4884375;29;2005;-94
2022/08/02 00:14:09;;;;;;;;;;;;;;;19.82;64.56;100400.94;4878806;29;1186;-93
2022/08/02 00:16:35;;;;;;;;;;;;;;;19.81;64.57;100395.78;4885272;29;1212;-95
2022/08/02 00:19:02;;;;;;;;;;;;;;;19.80;64.57;100394.16;4894250;29;1884;-94
2022/08/02 00:21:28;;;;;;;;;;;;;;;19.79;64.44;100398.78;4888065;29;1508;-95
2022/08/02 00:23:55;;;;;;;;;;;;;;;19.78;64.58;100396.34;4886481;29;1203;-93
2022/08/02 00:26:24;;;;;;;;;;;;;;;19.77;64.41;100400.19;4892797;29;1424;-94
2022/08/02 00:28:51;;;;;;;;;;;;;;;19.76;64.21;100396.63;4876021;29;2281;-93
2022/08/02 00:31:17;;;;;;;;;;;;;;;19.74;64.51;100396.09;4881534;29;1287;-93
2022/08/02 00:33:44;;;;;;;;;;;;;;;19.74;64.51;100396.09;4886958;29;1418;-93
2022/08/02 00:36:10;;;;;;;;;;;;;;;19.72;64.52;100401.03;4887475;29;1347;-94
2022/08/02 00:38:36;;;;;;;;;;;;;;;19.71;64.42;100400.22;4887529;29;1915;-94
2022/08/02 00:41:03;;;;;;;;;;;;;;;19.71;64.56;100407.59;4890456;29;1683;-95
2022/08/02 00:43:29;;;;;;;;;;;;;;;19.69;64.26;100413.34;4889735;29;1379;-94
2022/08/02 00:45:57;;;;;;;;;;;;;;;19.69;64.22;100418.00;4874841;29;1326;-95
2022/08/02 00:48:23;;;;;;;;;;;;;;;19.67;64.52;100415.53;4881865;29;2668;-92
2022/08/02 00:50:49;;;;;;;;;;;;;;;19.67;64.40;100414.72;4887181;29;1697;-94
2022/08/02 00:53:16;;;;;;;;;;;;;;;19.65;64.17;100411.47;4890897;29;1176;-94
2022/08/02 00:55:42;;;;;;;;;;;;;;;19.64;64.28;100415.25;4892044;29;1296;-93
2022/08/02 00:58:09;;;;;;;;;;;;;;;19.63;64.16;100417.19;4890679;29;1915;-94
2022/08/02 01:00:35;;;;;;;;;;;;;;;19.63;64.27;100410.91;4888822;29;1506;-92
2022/08/02 01:03:02;;;;;;;;;;;;;;;19.61;63.97;100402.97;4891611;29;1385;-93
2022/08/02 01:05:28;;;;;;;;;;;;;;;19.61;64.15;100413.09;4878101;29;1232;-94
2022/08/02 01:07:54;;;;;;;;;;;;;;;19.60;63.96;100414.19;4890755;29;1285;-94
2022/08/02 01:10:21;;;;;;;;;;;;;;;19.58;64.36;100414.47;4882361;29;2338;-93
2022/08/02 01:12:48;;;;;;;;;;;;;;;19.56;64.05;100419.44;4883774;29;1439;-93
2022/08/02 01:15:15;;;;;;;;;;;;;;;19.56;63.94;100421.31;4887378;29;1169;-92
2022/08/02 01:17:41;;;;;;;;;;;;;;;19.55;64.25;100417.78;4880486;29;2382;-94
2022/08/02 01:20:08;;;;;;;;;;;;;;;19.54;64.10;100410.69;4881690;29;2246;-95
2022/08/02 01:22:34;;;;;;;;;;;;;;;19.52;63.93;100405.50;4886537;29;1279;-94
2022/08/02 01:25:00;;;;;;;;;;;;;;;19.51;63.93;100395.69;4886608;29;1277;-92
2022/08/02 01:27:27;;;;;;;;;;;;;;;19.50;64.27;100399.53;4885036;29;1299;-93
2022/08/02 01:29:53;;;;;;;;;;;;;;;19.49;64.28;100402.50;4887528;29;1564;-92
2022/08/02 01:32:20;;;;;;;;;;;;;;;19.48;63.75;100395.44;4883031;29;1524;-93
2022/08/02 01:34:46;;;;;;;;;;;;;;;19.46;63.92;100398.44;4889278;29;1362;-95
2022/08/02 01:37:13;;;;;;;;;;;;;;;19.45;64.05;100405.00;4885092;29;2161;-92
2022/08/02 01:39:39;;;;;;;;;;;;;;;19.43;63.94;100403.66;4884105;29;1984;-94
2022/08/02 01:42:06;;;;;;;;;;;;;;;19.43;64.15;100406.38;4886020;29;1181;-95
2022/08/02 01:44:32;;;;;;;;;;;;;;;19.41;64.10;100409.41;4870363;29;1223;-93
2022/08/02 01:46:59;;;;;;;;;;;;;;;19.40;63.95;100402.28;4883102;29;1390;-94
2022/08/02 01:49:25;;;;;;;;;;;;;;;19.40;63.75;100401.47;4879225;29;1489;-92
2022/08/02 01:54:35;;;;;;;;;;;;;;;19.37;63.81;100410.25;4888746;29;1243;-93
2022/08/02 01:57:02;;;;;;;;;;;;;;;19.35;63.98;100404.22;4886173;29;2019;-93
2022/08/02 01:59:28;;;;;;;;;;;;;;;19.33;64.10;100396.34;4881696;29;1915;-93
2022/08/02 02:01:55;;;;;;;;;;;;;;;19.33;63.97;100403.72;4883411;29;1285;-93
2022/08/02 02:04:21;;;;;;;;;;;;;;;19.31;64.02;100414.91;4880105;29;2221;-94
2022/08/02 02:06:47;;;;;;;;;;;;;;;19.29;64.01;100408.91;4870531;29;2350;-93
2022/08/02 02:09:14;;;;;;;;;;;;;;;19.29;64.00;100417.94;4904500;29;1515;-93
2022/08/02 02:11:40;;;;;;;;;;;;;;;19.28;64.05;100418.19;4889204;29;2139;-94
2022/08/02 02:14:07;;;;;;;;;;;;;;;19.26;64.20;100410.28;4889613;29;1311;-94
2022/08/02 02:16:33;;;;;;;;;;;;;;;19.25;63.87;100414.13;4888502;29;1318;-92
2022/08/02 02:19:00;;;;;;;;;;;;;;;19.24;63.88;100415.22;4889657;29;1907;-95
2022/08/02 02:21:26;;;;;;;;;;;;;;;19.22;63.90;100417.41;4891346;29;2099;-95
2022/08/02 02:23:53;;;;;;;;;;;;;;;19.21;nan;100417.69;4889374;29;1221;-92
2022/08/02 02:26:19;;;;;;;;;;;;;;;19.19;64.11;100407.06;4879710;29;1126;-92
2022/08/02 02:28:46;;;;;;;;;;;;;;;19.19;63.99;100417.97;4882861;29;1610;-94
2022/08/02 02:31:12;;;;;;;;;;;;;;;19.18;63.78;100419.06;4891351;29;1483;-95
2022/08/02 02:33:39;;;;;;;;;;;;;;;19.17;64.04;100425.63;4892214;29;1149;-95
2022/08/02 02:36:05;;;;;;;;;;;;;;;19.15;63.76;100425.09;4888727;29;1205;-94
2022/08/02 02:38:32;;;;;;;;;;;;;;;19.15;63.91;100426.97;4888384;29;1969;-93
2022/08/02 02:40:58;;;;;;;;;;;;;;;19.13;63.76;100421.00;4883253;29;2192;-94
2022/08/02 02:43:24;;;;;;;;;;;;;;;19.12;63.68;100422.94;4878535;29;2187;-94
2022/08/02 02:45:51;;;;;;;;;;;;;;;19.10;63.93;100421.56;4885168;29;1191;-94
2022/08/02 02:48:17;;;;;;;;;;;;;;;19.09;63.90;100418.03;4880416;29;1515;-93
2022/08/02 02:50:44;;;;;;;;;;;;;;;19.08;63.86;100421.84;4883835;29;1412;-93
2022/08/02 02:53:10;;;;;;;;;;;;;;;19.05;64.02;100422.41;4886847;29;1199;-96
2022/08/02 02:55:37;;;;;;;;;;;;;;;19.05;63.52;100431.41;4889026;29;1267;-94
2022/08/02 02:58:03;;;;;;;;;;;;;;;19.04;63.93;100429.78;4884409;29;1970;-94
2022/08/02 03:03:14;;;;;;;;;;;;;;;19.03;63.92;100419.13;4867861;29;1368;-95
2022/08/02 03:05:40;;;;;;;;;;;;;;;19.01;63.63;100426.78;4874795;29;2293;-94
2022/08/02 03:08:06;;;;;;;;;;;;;;;18.99;63.57;100421.59;4885226;29;1322;-93
2022/08/02 03:10:33;;;;;;;;;;;;;;;18.99;63.80;100428.97;4876581;29;2697;-93
2022/08/02 03:12:59;;;;;;;;;;;;;;;18.97;63.74;100425.69;4867482;29;2033;-93
2022/08/02 03:15:26;;;;;;;;;;;;;;;18.95;63.79;100422.44;4866399;29;1294;-93
2022/08/02 03:17:52;;;;;;;;;;;;;;;18.94;63.80;100418.91;4882760;29;1826;-92
2022/08/02 03:20:18;;;;;;;;;;;;;;;18.94;63.86;100416.19;4880041;29;1919;-94
2022/08/02 03:22:45;;;;;;;;;;;;;;;18.93;63.98;100417.25;4889089;29;1650;-93
2022/08/02 03:25:11;;;;;;;;;;;;;;;18.91;63.77;100416.72;4888907;29;1179;-95
2022/08/02 03:27:38;;;;;;;;;;;;;;;18.91;63.56;100402.25;4887764;29;1847;-95
2022/08/02 03:30:04;;;;;;;;;;;;;;;18.89;63.76;100399.00;4888854;29;2780;-94
2022/08/02 03:32:31;;;;;;;;;;;;;;;18.90;63.79;100411.53;4890405;29;1265;-95
2022/08/02 03:34:57;;;;;;;;;;;;;;;18.87;63.70;100402.00;4887895;29;1432;-95
2022/08/02 03:37:26;;;;;;;;;;;;;;;18.87;63.56;100407.47;4885097;29;1152;-94
2022/08/02 03:39:52;;;;;;;;;;;;;;;18.86;63.73;100413.22;4886812;29;1988;-94
2022/08/02 03:42:19;;;;;;;;;;;;;;;18.84;63.85;100408.81;4885636;29;1335;-94
2022/08/02 03:44:45;;;;;;;;;;;;;;;18.83;63.57;100409.13;4886563;29;1436;-95
2022/08/02 03:47:12;;;;;;;;;;;;;;;18.80;63.85;100399.56;4868486;29;1531;-94
2022/08/02 03:49:38;;;;;;;;;;;;;;;18.79;63.73;100400.66;4876179;29;2160;-93
2022/08/02 03:52:05;;;;;;;;;;;;;;;18.80;63.56;100396.84;4887672;29;2315;-94
2022/08/02 03:54:31;;;;;;;;;;;;;;;18.79;63.46;100395.19;4887985;29;2935;-94
2022/08/02 03:56:58;;;;;;;;;;;;;;;18.78;63.73;100401.75;4888384;29;1382;-92
2022/08/02 03:59:24;;;;;;;;;;;;;;;18.76;63.37;100400.41;4887427;29;1892;-94
2022/08/02 04:01:51;;;;;;;;;;;;;;;18.75;63.60;100409.69;4875276;29;2350;-93
2022/08/02 04:04:17;;;;;;;;;;;;;;;18.75;63.63;100415.16;4866175;29;1346;-93
2022/08/02 04:06:44;;;;;;;;;;;;;;;18.74;63.80;100414.31;4883490;29;1181;-94
2022/08/02 04:09:10;;;;;;;;;;;;;;;18.72;63.52;100419.22;4879970;29;1970;-94
2022/08/02 04:11:36;;;;;;;;;;;;;;;18.70;63.69;100410.47;4880651;29;1739;-94
2022/08/02 04:14:03;;;;;;;;;;;;;;;18.68;63.60;100407.22;4888441;29;1235;-95
2022/08/02 04:16:30;;;;;;;;;;;;;;;18.69;63.70;100414.31;4870212;29;3475;-92
2022/08/02 04:18:56;;;;;;;;;;;;;;;18.68;63.43;100409.13;4868182;29;1919;-93
2022/08/02 04:21:23;;;;;;;;;;;;;;;18.66;63.31;100409.41;4873067;29;1630;-92
2022/08/02 04:23:49;;;;;;;;;;;;;;;18.65;63.55;100415.97;4872399;29;1164;-95
2022/08/02 04:26:16;;;;;;;;;;;;;;;18.64;63.72;100405.31;4886514;29;1751;-93
2022/08/02 04:28:42;;;;;;;;;;;;;;;18.64;63.56;100413.50;4888422;29;1393;-91
2022/08/02 04:31:09;;;;;;;;;;;;;;;18.62;63.50;100411.06;4887191;29;1688;-95
2022/08/02 04:33:35;;;;;;;;;;;;;;;18.61;63.46;100404.75;4885155;29;1958;-93
2022/08/02 04:36:01;;;;;;;;;;;;;;;18.61;63.53;100406.69;4882389;29;2310;-93
2022/08/02 04:38:28;;;;;;;;;;;;;;;18.59;63.24;100423.34;4886108;29;1986;-95
2022/08/02 04:40:54;;;;;;;;;;;;;;;18.59;63.37;100422.53;4885831;29;1161;-94
2022/08/02 04:43:21;;;;;;;;;;;;;;;18.59;63.17;100415.16;4872335;29;1405;-93
2022/08/02 04:45:47;;;;;;;;;;;;;;;18.58;63.32;100415.41;4880559;29;1250;-93
2022/08/02 04:48:13;;;;;;;;;;;;;;;18.57;63.30;100417.34;4886012;29;1152;-93
2022/08/02 04:50:40;;;;;;;;;;;;;;;18.56;63.55;100420.31;4871797;29;1539;-93
2022/08/02 04:53:06;;;;;;;;;;;;;;;18.54;63.38;100426.06;4885905;29;1180;-93
2022/08/02 04:55:33;;;;;;;;;;;;;;;18.54;63.22;100428.78;4885465;29;1164;-93
2022/08/02 04:57:59;;;;;;;;;;;;;;;18.54;63.25;100414.34;4882613;29;1202;-93
2022/08/02 05:00:25;;;;;;;;;;;;;;;18.52;63.21;100413.78;4896005;29;2252;-94
2022/08/02 05:02:52;;;;;;;;;;;;;;;18.51;63.30;100406.72;4887891;29;1391;-94
2022/08/02 05:05:19;;;;;;;;;;;;;;;18.52;63.29;100416.53;4885421;29;1294;-93
2022/08/02 05:07:45;;;;;;;;;;;;;;;18.51;63.27;100413.00;4882690;29;1399;-93
2022/08/02 05:10:12;;;;;;;;;;;;;;;18.50;63.39;100419.53;4872422;29;2373;-95
2022/08/02 05:12:38;;;;;;;;;;;;;;;18.49;63.18;100417.88;4884654;29;1156;-94
2022/08/02 05:15:05;;;;;;;;;;;;;;;18.49;63.41;100417.06;4899273;29;1919;-94
2022/08/02 05:17:31;;;;;;;;;;;;;;;18.48;63.46;100407.28;4875638;29;1807;-94
2022/08/02 05:19:57;;;;;;;;;;;;;;;18.47;63.20;100402.88;4894904;29;1895;-93
2022/08/02 05:22:24;;;;;;;;;;;;;;;18.46;63.04;100402.09;4904422;29;1357;-95
2022/08/02 05:24:50;;;;;;;;;;;;;;;18.45;63.31;100403.19;4872749;29;1428;-95
2022/08/02 05:27:17;;;;;;;;;;;;;;;18.46;63.25;100404.81;4883491;29;1551;-95
2022/08/02 05:29:43;;;;;;;;;;;;;;;18.45;63.04;100405.91;4869330;29;1261;-93
2022/08/02 05:32:09;;;;;;;;;;;;;;;18.45;63.10;100396.91;4904416;29;1183;-92
2022/08/02 05:34:36;;;;;;;;;;;;;;;18.44;63.18;100401.53;4869452;29;1250;-93
2022/08/02 05:37:02;;;;;;;;;;;;;;;18.43;63.28;100397.19;4871954;29;2332;-93
2022/08/02 05:39:30;;;;;;;;;;;;;;;18.43;63.21;100399.91;4887039;29;1982;-95
2022/08/02 05:41:57;;;;;;;;;;;;;;;18.42;63.08;100401.00;4872217;29;2136;-95
2022/08/02 05:44:23;;;;;;;;;;;;;;;18.41;63.11;100402.09;4883653;29;2214;-92
2022/08/02 05:46:49;;;;;;;;;;;;;;;18.41;63.11;100413.00;4879847;29;1622;-93
2022/08/02 05:49:16;;;;;;;;;;;;;;;18.41;62.98;100418.44;4883130;29;1249;-94
2022/08/02 05:51:42;;;;;;;;;;;;;;;18.40;63.29;100416.81;4874799;29;2263;-93
2022/08/02 05:54:08;;;;;;;;;;;;;;;18.41;63.29;100409.44;4875287;29;1191;-93
2022/08/02 05:56:35;;;;;;;;;;;;;;;18.39;63.22;100409.75;4873267;29;1507;-93
2022/08/02 05:59:01;;;;;;;;;;;;;;;18.38;63.04;100403.47;4885186;29;1979;-92
2022/08/02 06:01:28;;;;;;;;;;;;;;;18.37;63.21;100410.00;4876227;29;2230;-93
2022/08/02 06:03:54;;;;;;;;;;;;;;;18.36;62.92;100402.94;4882526;29;1405;-94
2022/08/02 06:06:22;;;;;;;;;;;;;;;18.36;63.18;100413.03;4875280;29;1430;-94
2022/08/02 06:08:48;;;;;;;;;;;;;;;18.35;63.18;100400.47;4885095;29;1292;-94
2022/08/02 06:11:15;;;;;;;;;;;;;;;18.36;63.11;100402.13;4884919;29;2312;-93
2022/08/02 06:13:41;;;;;;;;;;;;;;;18.35;63.09;100398.56;4885832;29;1992;-93
2022/08/02 06:16:07;;;;;;;;;;;;;;;18.35;62.88;100401.31;4873494;29;5205;-92
2022/08/02 06:18:34;;;;;;;;;;;;;;;18.33;63.03;100389.03;4883521;29;2335;-91
2022/08/02 06:21:00;;;;;;;;;;;;;;;18.33;62.86;100387.13;4878208;29;1974;-94
2022/08/02 06:23:27;;;;;;;;;;;;;;;18.34;62.88;100377.03;4884867;29;1568;-93
2022/08/02 06:25:54;;;;;;;;;;;;;;;18.33;63.09;100378.13;4884074;29;1201;-93
2022/08/02 06:28:20;;;;;;;;;;;;;;;18.32;63.08;100376.47;4876033;29;1657;-94
2022/08/02 06:30:47;;;;;;;;;;;;;;;18.32;63.09;100385.50;4880019;29;2257;-93
2022/08/02 06:33:13;;;;;;;;;;;;;;;18.32;62.78;100373.75;4876963;29;4789;-92
2022/08/02 06:35:40;;;;;;;;;;;;;;;18.32;62.79;100379.19;4883744;29;1854;-92
2022/08/02 06:38:06;;;;;;;;;;;;;;;18.31;62.90;100374.84;4883691;29;1940;-92
2022/08/02 06:40:32;;;;;;;;;;;;;;;18.32;62.93;100376.47;4883948;29;1915;-92
2022/08/02 06:42:59;;;;;;;;;;;;;;;18.31;62.90;100372.13;4883863;29;1178;-93
2022/08/02 06:45:25;;;;;;;;;;;;;;;18.31;62.94;100383.03;4880941;29;1330;-94
2022/08/02 06:47:52;;;;;;;;;;;;;;;18.30;62.94;100387.66;4883699;29;1276;-91
2022/08/02 06:50:18;;;;;;;;;;;;;;;18.30;62.90;100386.84;4883649;29;1980;-91
2022/08/02 06:52:44;;;;;;;;;;;;;;;18.28;62.95;100381.66;4883811;29;1212;-91
2022/08/02 06:55:11;;;;;;;;;;;;;;;18.29;62.86;100383.28;4883036;29;2069;-93
2022/08/02 06:57:37;;;;;;;;;;;;;;;18.28;63.01;100378.94;4883688;29;1201;-93
2022/08/02 07:00:07;;;;;;;;;;;;;;;18.29;62.85;100382.47;4880576;29;1911;-91
2022/08/02 07:02:33;;;;;;;;;;;;;;;18.29;62.80;100393.38;4880508;29;1285;-94
2022/08/02 07:04:59;;;;;;;;;;;;;;;18.29;62.86;100390.66;4878786;29;4262;-91
2022/08/02 07:07:26;;;;;;;;;;;;;;;18.29;62.84;100393.38;4882765;29;2039;-94
2022/08/02 07:09:52;;;;;;;;;;;;;;;18.28;62.85;100389.03;4878503;29;1895;-94
2022/08/02 07:12:18;;;;;;;;;;;;;;;18.26;62.55;100394.75;4867243;29;1906;-94
2022/08/02 07:14:45;;;;;;;;;;;;;;;18.27;62.70;100385.50;4880846;29;1277;-93
2022/08/02 07:17:11;;;;;;;;;;;;;;;18.28;62.51;100383.59;4882403;29;1766;-93
2022/08/02 07:19:38;;;;;;;;;;;;;;;18.28;62.57;100383.59;4876719;29;2135;-91
2022/08/02 07:22:04;;;;;;;;;;;;;;;18.28;62.68;100389.03;4870377;29;3364;-91
2022/08/02 07:24:30;;;;;;;;;;;;;;;18.27;62.72;100393.66;4883625;29;1186;-92
2022/08/02 07:26:57;;;;;;;;;;;;;;;18.27;62.88;100390.94;4883369;29;1871;-93
2022/08/02 07:29:23;;;;;;;;;;;;;;;18.27;62.46;100379.22;4883299;29;1185;-93
2022/08/02 07:31:50;;;;;;;;;;;;;;;18.27;62.71;100379.22;4883158;29;1216;-93
2022/08/02 07:34:16;;;;;;;;;;;;;;;18.26;62.48;100381.13;4880767;29;3228;-92
2022/08/02 07:36:42;;;;;;;;;;;;;;;18.27;62.68;100377.31;4877797;29;2096;-91
2022/08/02 07:39:09;;;;;;;;;;;;;;;18.26;62.47;100363.94;4868662;29;2131;-93
2022/08/02 07:41:35;;;;;;;;;;;;;;;18.25;62.73;100360.41;4883136;29;2000;-92
2022/08/02 07:44:02;;;;;;;;;;;;;;;18.26;62.67;100364.75;4885801;29;1242;-92
2022/08/02 07:46:28;;;;;;;;;;;;;;;18.26;62.48;100356.59;4886554;29;1282;-93
2022/08/02 07:48:54;;;;;;;;;;;;;;;18.25;62.62;100356.88;4886580;29;1231;-92
2022/08/02 07:51:21;;;;;;;;;;;;;;;18.26;62.61;100356.59;4883942;29;2229;-94
2022/08/02 07:53:47;;;;;;;;;;;;;;;18.25;62.64;100357.69;4881312;29;1331;-93
2022/08/02 07:56:14;;;;;;;;;;;;;;;18.26;62.60;100364.75;4885960;29;1607;-93
2022/08/02 07:58:40;;;;;;;;;;;;;;;18.25;62.61;100360.41;4873459;29;1272;-93
2022/08/02 08:01:06;;;;;;;;;;;;;;;18.26;62.40;100366.69;4885851;29;2027;-92
2022/08/02 08:03:33;;;;;;;;;;;;;;;18.26;62.60;100369.41;4865926;29;2593;-93
2022/08/02 08:06:00;;;;;;;;;;;;;;;18.26;62.64;100366.69;4864542;29;1270;-93
2022/08/02 08:08:26;;;;;;;;;;;;;;;18.25;62.61;100367.78;4864724;29;1183;-93
2022/08/02 08:10:52;;;;;;;;;;;;;;;18.25;62.43;100365.06;4858350;29;2117;-92
2022/08/02 08:13:19;;;;;;;;;;;;;;;18.26;62.51;100366.69;4863281;29;2039;-92
2022/08/02 08:15:45;;;;;;;;;;;;;;;18.25;62.51;100365.06;4846753;29;2795;-93
2022/08/02 08:18:11;;;;;;;;;;;;;;;18.24;62.40;100361.50;4846783;29;5008;-92
2022/08/02 08:20:38;;;;;;;;;;;;;;;18.25;62.33;100365.88;4863985;29;1911;-92
2022/08/02 08:23:04;;;;;;;;;;;;;;;18.25;62.34;100367.78;4864447;29;1402;-92
2022/08/02 08:25:30;;;;;;;;;;;;;;;18.25;62.44;100367.78;4864653;29;1256;-91
2022/08/02 08:27:57;;;;;;;;;;;;;;;18.24;62.27;100368.88;4863310;29;1310;-93
2022/08/02 08:30:24;;;;;;;;;;;;;;;18.25;62.42;100371.31;4864105;29;1192;-93
2022/08/02 08:32:50;;;;;;;;;;;;;;;18.25;62.64;100373.22;4861567;29;2198;-92
2022/08/02 08:35:16;;;;;;;;;;;;;;;18.25;62.30;100373.22;4864009;29;1243;-92
2022/08/02 08:37:43;;;;;;;;;;;;;;;18.25;62.47;100370.50;4863563;29;1318;-92
2022/08/02 08:40:09;;;;;;;;;;;;;;;18.25;62.35;100368.59;4863910;29;1904;-92
2022/08/02 08:42:35;;;;;;;;;;;;;;;18.25;62.47;100373.22;4863768;29;1180;-92
2022/08/02 08:45:02;;;;;;;;;;;;;;;18.25;62.44;100371.31;4861413;29;1315;-92
2022/08/02 08:47:28;;;;;;;;;;;;;;;18.26;62.42;100377.56;4863694;29;1294;-92
2022/08/02 08:49:54;;;;;;;;;;;;;;;18.25;62.36;100376.78;4864491;29;1335;-92
2022/08/02 08:52:21;;;;;;;;;;;;;;;18.25;62.18;100376.78;4864067;29;1233;-91
2022/08/02 08:54:47;;;;;;;;;;;;;;;18.26;62.43;100383.84;4863021;29;1215;-93
2022/08/02 08:57:13;;;;;;;;;;;;;;;18.27;62.50;100392.88;4863502;29;1276;-93
2022/08/02 08:59:40;;;;;;;;;;;;;;;18.27;62.35;100380.03;4863352;29;1915;-92
2022/08/02 09:02:09;;;;;;;;;;;;;;;18.27;62.44;100385.50;4860483;29;2117;-92
2022/08/02 09:04:35;;;;;;;;;;;;;;;18.27;62.30;100382.78;4872174;29;1326;-92
2022/08/02 09:07:01;;;;;;;;;;;;;;;18.27;62.36;100387.41;4881759;29;1247;-91
2022/08/02 09:09:27;;;;;;;;;;;;;;;18.27;62.17;100379.22;4877542;29;2246;-93
2022/08/02 09:11:54;;;;;;;;;;;;;;;18.27;62.24;100374.59;4872114;29;2175;-92
2022/08/02 09:14:20;;;;;;;;;;;;;;;18.26;62.04;100383.84;4882151;29;1229;-93
2022/08/02 09:16:47;;;;;;;;;;;;;;;18.26;62.13;100378.38;4881658;29;1152;-91
2022/08/02 09:19:13;;;;;;;;;;;;;;;18.27;62.14;100374.59;4880954;29;1961;-91
2022/08/02 09:21:39;;;;;;;;;;;;;;;18.27;62.27;100371.88;4880149;29;1919;-91
2022/08/02 09:24:06;;;;;;;;;;;;;;;18.27;61.86;100376.50;4881796;29;1116;-92
2022/08/02 09:26:32;;;;;;;;;;;;;;;18.28;62.29;100383.59;4876209;29;2255;-90
2022/08/02 09:28:58;;;;;;;;;;;;;;;18.27;61.86;100380.03;4881828;29;1244;-92
2022/08/02 09:31:25;;;;;;;;;;;;;;;18.28;62.21;100378.94;4881806;29;1356;-92
2022/08/02 09:33:51;;;;;;;;;;;;;;;18.27;62.22;100369.13;4877272;29;4788;-93
2022/08/02 09:36:18;;;;;;;;;;;;;;;18.27;62.03;100374.59;4880033;29;5099;-92
2022/08/02 09:38:44;;;;;;;;;;;;;;;18.30;62.25;100370.50;4880550;29;2262;-92
2022/08/02 09:41:11;;;;;;;;;;;;;;;18.31;62.01;100372.13;4879368;29;3830;-92
2022/08/02 09:43:37;;;;;;;;;;;;;;;18.30;61.89;100367.78;4881767;29;1358;-92
2022/08/02 09:46:03;;;;;;;;;;;;;;;18.31;62.12;100364.75;4881219;29;1199;-92
2022/08/02 09:48:30;;;;;;;;;;;;;;;18.30;62.01;100365.88;4880344;29;2179;-92
2022/08/02 09:50:56;;;;;;;;;;;;;;;18.31;62.21;100363.94;4879454;29;2168;-94
2022/08/02 09:53:22;;;;;;;;;;;;;;;18.30;61.77;100363.13;4868725;29;3998;-94
2022/08/02 09:55:49;;;;;;;;;;;;;;;18.31;61.86;100367.50;4881319;29;1303;-93
2022/08/02 09:58:15;;;;;;;;;;;;;;;18.31;62.18;100364.75;4880683;29;1838;-93
2022/08/02 10:00:41;;;;;;;;;;;;;;;18.32;62.15;100369.13;4879524;29;1907;-92
2022/08/02 10:03:08;;;;;;;;;;;;;;;18.33;62.30;100367.22;4879852;29;1395;-92
2022/08/02 10:05:34;;;;;;;;;;;;;;;18.32;62.10;100371.03;4875728;29;3279;-91
2022/08/02 10:08:01;;;;;;;;;;;;;;;18.34;62.21;100366.94;4880517;29;1986;-92
2022/08/02 10:10:27;;;;;;;;;;;;;;;18.33;62.30;100365.31;4868533;29;2262;-91
2022/08/02 10:12:53;;;;;;;;;;;;;;;18.33;62.01;100367.22;4880750;29;1151;-92
2022/08/02 10:15:20;;;;;;;;;;;;;;;18.33;61.86;100362.59;4880955;29;1208;-92
2022/08/02 10:17:46;;;;;;;;;;;;;;;18.33;62.29;100368.03;4876931;29;5044;-92
2022/08/02 10:20:13;;;;;;;;;;;;;;;18.32;61.97;100365.56;4880697;29;1915;-93
2022/08/02 10:22:39;;;;;;;;;;;;;;;18.32;62.27;100371.88;4880788;29;1874;-92
2022/08/02 10:25:05;;;;;;;;;;;;;;;18.33;62.13;100354.41;4879936;29;1210;-93
2022/08/02 10:27:32;;;;;;;;;;;;;;;18.34;61.78;100352.50;4882011;29;1205;-93
2022/08/02 10:29:58;;;;;;;;;;;;;;;18.32;62.18;100344.59;4880584;29;1261;-92
2022/08/02 10:32:25;;;;;;;;;;;;;;;18.34;62.08;100336.94;4873194;29;2107;-92
2022/08/02 10:34:51;;;;;;;;;;;;;;;18.35;62.33;100337.75;4876782;29;4793;-93
2022/08/02 10:37:19;;;;;;;;;;;;;;;18.35;61.96;100332.31;4869210;29;4733;-93
2022/08/02 10:39:45;;;;;;;;;;;;;;;18.35;61.99;100326.84;4880621;29;4768;-92
2022/08/02 10:42:12;;;;;;;;;;;;;;;18.36;62.15;100326.59;4878954;29;1899;-92
2022/08/02 10:44:38;;;;;;;;;;;;;;;18.36;62.26;100325.78;4863580;29;1273;-92
2022/08/02 10:47:04;;;;;;;;;;;;;;;18.36;62.12;100323.06;4880613;29;1319;-92
2022/08/02 10:49:31;;;;;;;;;;;;;;;18.37;62.17;100325.50;4880566;29;1263;-93
2022/08/02 10:51:57;;;;;;;;;;;;;;;18.38;62.35;100318.13;4880381;29;4744;-92
2022/08/02 10:54:23;;;;;;;;;;;;;;;18.38;62.03;100323.56;4869069;29;1339;-90
2022/08/02 10:56:50;;;;;;;;;;;;;;;18.38;62.17;100316.22;4880840;29;1301;-93
2022/08/02 10:59:16;;;;;;;;;;;;;;;18.39;61.90;100315.13;4879347;29;1220;-91
2022/08/02 11:01:43;;;;;;;;;;;;;;;18.39;62.29;100317.03;4863289;29;2170;-91
2022/08/02 11:04:09;;;;;;;;;;;;;;;18.39;62.23;100306.13;4877077;29;3169;-93
2022/08/02 11:06:35;;;;;;;;;;;;;;;18.40;62.31;100305.03;4878148;29;1798;-94
2022/08/02 11:09:02;;;;;;;;;;;;;;;18.41;61.98;100309.38;4879663;29;2259;-93
2022/08/02 11:11:28;;;;;;;;;;;;;;;18.41;62.09;100317.56;4879423;29;2146;-91
2022/08/02 11:13:54;;;;;;;;;;;;;;;18.41;62.42;100317.56;4879627;29;2043;-93
2022/08/02 11:16:21;;;;;;;;;;;;;;;18.42;62.10;100319.22;4880095;29;1203;-93
2022/08/02 11:18:47;;;;;;;;;;;;;;;18.42;62.25;100311.03;4882673;29;1409;-93
2022/08/02 11:21:13;;;;;;;;;;;;;;;18.43;62.44;100309.94;4883287;29;1919;-92
2022/08/02 11:23:40;;;;;;;;;;;;;;;18.44;62.25;100310.75;4883810;29;1945;-93
2022/08/02 11:26:06;;;;;;;;;;;;;;;18.44;62.34;100308.00;4885026;29;1178;-93
2022/08/02 11:28:33;;;;;;;;;;;;;;;18.44;62.23;100303.38;4883794;29;1184;-92
2022/08/02 11:30:59;;;;;;;;;;;;;;;18.44;62.34;100306.09;4883780;29;1347;-92
2022/08/02 11:33:25;;;;;;;;;;;;;;;18.46;62.03;100311.28;4883049;29;1300;-92
2022/08/02 11:35:52;;;;;;;;;;;;;;;18.46;62.04;100300.38;4868898;29;2072;-91
2022/08/02 11:38:18;;;;;;;;;;;;;;;18.45;61.92;100307.75;4884065;29;1302;-91
2022/08/02 11:40:45;;;;;;;;;;;;;;;18.45;62.41;100305.03;4867735;29;2173;-92
2022/08/02 11:43:11;;;;;;;;;;;;;;;18.46;62.02;100300.38;4867206;29;1294;-93
2022/08/02 11:45:37;;;;;;;;;;;;;;;18.46;62.23;100305.84;4883630;29;1290;-92
2022/08/02 11:48:04;;;;;;;;;;;;;;;18.46;62.34;100305.84;4883823;29;1312;-92
2022/08/02 11:50:30;;;;;;;;;;;;;;;18.46;62.34;100303.91;4882305;29;1194;-92
2022/08/02 11:52:56;;;;;;;;;;;;;;;18.47;62.31;100300.13;4883351;29;1164;-92
2022/08/02 11:55:23;;;;;;;;;;;;;;;18.47;62.04;100307.47;4883291;29;1296;-92
2022/08/02 11:57:49;;;;;;;;;;;;;;;18.47;62.16;100310.19;4875339;29;2301;-92
2022/08/02 12:00:16;;;;;;;;;;;;;;;18.47;62.15;100310.19;4883494;29;1471;-92
2022/08/02 12:02:42;;;;;;;;;;;;;;;18.47;62.31;100313.75;4883600;29;1976;-92
2022/08/02 12:05:08;;;;;;;;;;;;;;;18.47;62.34;100312.91;4869996;29;2152;-93
2022/08/02 12:07:35;;;;;;;;;;;;;;;18.48;62.23;100311.84;4882928;29;1353;-91
2022/08/02 12:10:01;;;;;;;;;;;;;;;18.47;62.26;100307.47;4881249;29;2145;-92
2022/08/02 12:12:27;;;;;;;;;;;;;;;18.46;62.08;100311.28;4882523;29;1300;-91
2022/08/02 12:14:54;;;;;;;;;;;;;;;18.48;62.32;100309.09;4883594;29;1346;-93
2022/08/02 12:20:04;;;;;;;;;;;;;;;18.46;62.12;100301.19;4868357;29;5169;-92
2022/08/02 12:22:30;;;;;;;;;;;;;;;18.48;62.33;100309.91;4883717;29;1945;-90
2022/08/02 12:24:57;;;;;;;;;;;;;;;18.47;62.22;100311.03;4877925;29;1276;-91
2022/08/02 12:27:23;;;;;;;;;;;;;;;18.49;62.36;100308.00;4882382;29;2039;-92
2022/08/02 12:29:50;;;;;;;;;;;;;;;18.47;62.25;100305.56;4882019;29;1170;-93
2022/08/02 12:32:16;;;;;;;;;;;;;;;18.49;62.38;100308.00;4882881;29;1184;-92
2022/08/02 12:34:42;;;;;;;;;;;;;;;18.48;62.29;100300.94;4883040;29;1324;-92
2022/08/02 12:37:09;;;;;;;;;;;;;;;18.47;62.14;100297.41;4882760;29;1168;-89
2022/08/02 12:39:35;;;;;;;;;;;;;;;18.48;62.08;100301.75;4882529;29;1229;-93
2022/08/02 12:42:01;;;;;;;;;;;;;;;18.48;62.28;100293.56;4877028;29;1911;-92
2022/08/02 12:44:28;;;;;;;;;;;;;;;18.49;61.96;100299.81;4882287;29;1301;-92
2022/08/02 12:46:54;;;;;;;;;;;;;;;18.49;62.30;100310.72;4883045;29;1380;-94
2022/08/02 12:49:20;;;;;;;;;;;;;;;18.45;62.02;100293.31;4882732;29;1330;-92
2022/08/02 12:51:47;;;;;;;;;;;;;;;18.44;62.07;100297.09;4881625;29;1499;-92